CST,Max TemperatureF,Mean TemperatureF,Min TemperatureF,Max Dew PointF,MeanDew PointF,Min DewpointF,Max Humidity, Mean Humidity, Min Humidity, Max Sea Level PressureIn, Mean Sea Level PressureIn, Min Sea Level PressureIn, Max VisibilityMiles, Mean VisibilityMiles, Min VisibilityMiles, Max Wind SpeedMPH, Mean Wind SpeedMPH, Max Gust SpeedMPH,PrecipitationIn, CloudCover, Events, WindDirDegrees
2013-12-1,58,41,24,35,27,21,92,66,40,30.16,30.08,29.88,10,4,0,6,0,9,0.00,0,Fog,8
2013-12-2,57,45,32,41,37,29,92,72,51,29.85,29.70,29.60,10,7,3,15,5,18,0.00,1,,179
2013-12-3,61,49,36,43,38,34,92,71,49,29.62,29.57,29.52,10,5,0,14,5,17,0.00,2,Fog,113
2013-12-4,39,30,21,37,27,10,92,76,59,30.12,29.75,29.56,10,6,1,25,13,32,0.02,7,Rain-Snow,315
2013-12-5,21,18,15,11,6,3,67,57,47,30.47,30.32,30.10,10,9,2,22,12,30,0.02,5,Snow,331
2013-12-6,19,14,8,1,-2,-4,63,51,39,30.73,30.58,30.44,10,10,10,20,12,24,0.00,5,,349
2013-12-7,23,13,2,4,0,-5,76,57,38,30.80,30.64,30.40,10,10,10,15,9,19,T,2,,49
2013-12-8,24,20,15,21,16,4,91,68,45,30.38,30.13,29.98,10,4,0,16,7,20,0.04,7,Fog-Snow,126
2013-12-9,18,13,8,9,3,-1,92,70,47,30.48,30.37,30.26,10,10,7,15,6,18,0.00,0,,286
2013-12-10,40,25,10,19,12,3,76,58,40,30.38,30.28,30.20,10,10,7,13,5,18,0.00,0,,191
2013-12-11,28,19,10,21,8,-2,84,60,36,30.69,30.57,30.27,10,10,5,22,8,33,0.00,1,,351
2013-12-12,48,30,11,22,13,2,67,48,29,30.63,30.39,30.17,10,10,10,16,6,22,0.00,0,,200
2013-12-13,40,35,30,35,31,23,100,83,66,30.14,29.94,29.84,9,5,1,16,7,23,0.01,7,Rain,120
2013-12-14,33,25,17,30,20,14,92,73,54,30.28,30.17,29.96,8,4,1,23,11,31,0.01,5,Rain,329
2013-12-15,54,35,16,28,22,12,88,62,35,30.24,30.09,29.99,10,8,4,12,4,14,0.00,0,,219
2013-12-16,63,43,23,30,25,19,88,57,25,30.19,30.08,29.99,10,10,10,18,4,23,0.00,0,,312
2013-12-17,51,36,21,30,22,19,92,61,30,30.35,30.28,30.20,10,8,4,17,4,23,0.00,0,,299
2013-12-18,68,46,23,35,29,19,81,52,22,30.22,29.93,29.75,10,10,10,24,10,36,0.00,0,,195
2013-12-19,58,47,35,47,40,31,89,70,50,29.77,29.71,29.64,10,9,3,18,8,26,T,5,,150
2013-12-20,35,27,19,31,20,15,92,85,77,30.01,29.91,29.76,7,4,1,20,11,26,0.01,8,Rain-Snow,318
2013-12-21,28,25,22,24,21,17,92,83,74,29.91,29.78,29.66,8,3,0,17,8,23,0.38,8,Fog-Rain-Snow,9
2013-12-22,26,15,4,21,14,1,92,79,65,30.44,30.15,29.79,10,5,0,18,9,23,0.07,4,Fog-Snow,312
2013-12-23,16,10,4,5,3,0,87,73,58,30.70,30.59,30.39,10,6,0,13,5,17,T,5,Fog-Snow,313
2013-12-24,31,17,3,27,14,-2,92,76,60,30.64,30.38,30.18,10,7,2,22,9,26,0.00,4,,174
2013-12-25,40,29,17,28,23,15,92,76,59,30.40,30.34,30.28,10,5,0,15,5,18,0.00,1,Fog,273
2013-12-26,50,33,15,28,19,12,92,66,39,30.37,30.30,30.19,10,6,0,20,5,27,0.00,0,Fog,227
2013-12-27,57,39,20,32,25,17,92,61,30,30.37,30.29,30.20,10,8,4,10,2,14,0.00,0,,202
2013-12-28,58,43,28,33,29,25,85,59,33,30.18,30.02,29.88,10,10,10,21,7,30,0.00,0,,200
2013-12-29,38,25,11,25,3,-5,70,52,33,30.41,30.32,30.05,10,10,10,25,13,34,T,3,,331
2013-12-30,37,24,10,17,6,-1,74,52,29,30.37,30.29,30.20,10,10,10,16,6,22,0.00,2,,213
2013-12-31,55,36,16,25,19,12,92,58,24,30.36,30.18,30.05,10,10,8,28,7,39,0.00,0,,183